sensor_id;sensor_type;location;lat;lon;timestamp;P1;durP1;ratioP1;P2;durP2;ratioP2
13816;SDS011;6979;52.116;5.286;2023-04-19T00:00:41;6.97;;;6.30;;
13816;SDS011;6979;52.116;5.286;2023-04-19T00:03:08;7.23;;;6.73;;
13816;SDS011;6979;52.116;5.286;2023-04-19T00:05:38;7.90;;;7.30;;
13816;SDS011;6979;52.116;5.286;2023-04-19T00:08:05;7.43;;;6.93;;
13816;SDS011;6979;52.116;5.286;2023-04-19T00:10:32;7.57;;;6.97;;
13816;SDS011;6979;52.116;5.286;2023-04-19T00:13:00;7.13;;;6.43;;
13816;SDS011;6979;52.116;5.286;2023-04-19T00:15:30;5.97;;;5.50;;
13816;SDS011;6979;52.116;5.286;2023-04-19T00:17:59;8.37;;;7.73;;
13816;SDS011;6979;52.116;5.286;2023-04-19T00:20:26;7.13;;;6.47;;
13816;SDS011;6979;52.116;5.286;2023-04-19T00:22:53;7.50;;;6.90;;
13816;SDS011;6979;52.116;5.286;2023-04-19T00:25:21;7.03;;;6.47;;
13816;SDS011;6979;52.116;5.286;2023-04-19T00:27:47;8.03;;;7.33;;
13816;SDS011;6979;52.116;5.286;2023-04-19T00:30:14;7.33;;;6.73;;
13816;SDS011;6979;52.116;5.286;2023-04-19T00:32:42;7.70;;;7.07;;
13816;SDS011;6979;52.116;5.286;2023-04-19T00:35:10;7.03;;;6.43;;
13816;SDS011;6979;52.116;5.286;2023-04-19T00:37:37;7.47;;;6.87;;
13816;SDS011;6979;52.116;5.286;2023-04-19T00:40:04;7.60;;;6.93;;
13816;SDS011;6979;52.116;5.286;2023-04-19T00:42:35;7.47;;;6.87;;
13816;SDS011;6979;52.116;5.286;2023-04-19T00:45:02;7.93;;;7.30;;
13816;SDS011;6979;52.116;5.286;2023-04-19T00:47:29;8.63;;;7.73;;
13816;SDS011;6979;52.116;5.286;2023-04-19T00:49:57;7.50;;;7.00;;
13816;SDS011;6979;52.116;5.286;2023-04-19T00:52:32;7.67;;;7.07;;
13816;SDS011;6979;52.116;5.286;2023-04-19T00:54:59;7.87;;;7.20;;
13816;SDS011;6979;52.116;5.286;2023-04-19T00:57:27;8.00;;;7.40;;
13816;SDS011;6979;52.116;5.286;2023-04-19T00:59:55;8.13;;;7.33;;
13816;SDS011;6979;52.116;5.286;2023-04-19T01:02:22;7.53;;;6.93;;
13816;SDS011;6979;52.116;5.286;2023-04-19T01:04:49;8.63;;;7.83;;
13816;SDS011;6979;52.116;5.286;2023-04-19T01:07:18;7.17;;;6.63;;
13816;SDS011;6979;52.116;5.286;2023-04-19T01:09:45;7.60;;;6.90;;
13816;SDS011;6979;52.116;5.286;2023-04-19T01:12:12;7.20;;;6.60;;
13816;SDS011;6979;52.116;5.286;2023-04-19T01:14:41;8.33;;;7.43;;
13816;SDS011;6979;52.116;5.286;2023-04-19T01:17:08;7.70;;;7.10;;
13816;SDS011;6979;52.116;5.286;2023-04-19T01:19:37;7.03;;;6.43;;
13816;SDS011;6979;52.116;5.286;2023-04-19T01:22:04;7.40;;;6.80;;
13816;SDS011;6979;52.116;5.286;2023-04-19T01:24:32;8.47;;;7.73;;
13816;SDS011;6979;52.116;5.286;2023-04-19T01:26:59;8.20;;;7.40;;
13816;SDS011;6979;52.116;5.286;2023-04-19T01:29:26;9.23;;;8.43;;
13816;SDS011;6979;52.116;5.286;2023-04-19T01:31:53;8.73;;;8.03;;
13816;SDS011;6979;52.116;5.286;2023-04-19T01:34:20;8.50;;;7.77;;
13816;SDS011;6979;52.116;5.286;2023-04-19T01:36:48;8.27;;;7.57;;
13816;SDS011;6979;52.116;5.286;2023-04-19T01:39:15;8.53;;;7.83;;
13816;SDS011;6979;52.116;5.286;2023-04-19T01:41:43;7.83;;;7.23;;
13816;SDS011;6979;52.116;5.286;2023-04-19T01:44:10;7.77;;;7.10;;
13816;SDS011;6979;52.116;5.286;2023-04-19T01:46:37;8.87;;;8.00;;
13816;SDS011;6979;52.116;5.286;2023-04-19T01:49:06;8.40;;;7.70;;
13816;SDS011;6979;52.116;5.286;2023-04-19T01:51:34;8.60;;;7.90;;
13816;SDS011;6979;52.116;5.286;2023-04-19T01:54:03;8.10;;;7.40;;
13816;SDS011;6979;52.116;5.286;2023-04-19T01:56:30;8.47;;;7.67;;
13816;SDS011;6979;52.116;5.286;2023-04-19T01:58:59;8.03;;;7.33;;
13816;SDS011;6979;52.116;5.286;2023-04-19T02:01:26;8.33;;;7.53;;
13816;SDS011;6979;52.116;5.286;2023-04-19T02:03:56;9.43;;;8.63;;
13816;SDS011;6979;52.116;5.286;2023-04-19T02:06:24;8.40;;;7.70;;
13816;SDS011;6979;52.116;5.286;2023-04-19T02:08:51;8.23;;;7.53;;
13816;SDS011;6979;52.116;5.286;2023-04-19T02:11:18;7.57;;;6.93;;
13816;SDS011;6979;52.116;5.286;2023-04-19T02:13:45;8.03;;;7.20;;
13816;SDS011;6979;52.116;5.286;2023-04-19T02:16:13;8.27;;;7.57;;
13816;SDS011;6979;52.116;5.286;2023-04-19T02:18:42;8.20;;;7.40;;
13816;SDS011;6979;52.116;5.286;2023-04-19T02:21:10;8.63;;;7.83;;
13816;SDS011;6979;52.116;5.286;2023-04-19T02:23:37;9.13;;;8.40;;
13816;SDS011;6979;52.116;5.286;2023-04-19T02:26:04;8.27;;;7.57;;
13816;SDS011;6979;52.116;5.286;2023-04-19T02:28:31;8.07;;;7.33;;
13816;SDS011;6979;52.116;5.286;2023-04-19T02:31:02;8.97;;;8.17;;
13816;SDS011;6979;52.116;5.286;2023-04-19T02:33:34;7.83;;;7.17;;
13816;SDS011;6979;52.116;5.286;2023-04-19T02:36:01;7.83;;;7.13;;
13816;SDS011;6979;52.116;5.286;2023-04-19T02:38:28;8.70;;;7.90;;
13816;SDS011;6979;52.116;5.286;2023-04-19T02:40:55;8.53;;;7.83;;
13816;SDS011;6979;52.116;5.286;2023-04-19T02:43:22;8.57;;;7.87;;
13816;SDS011;6979;52.116;5.286;2023-04-19T02:45:49;9.50;;;8.60;;
13816;SDS011;6979;52.116;5.286;2023-04-19T02:48:16;8.53;;;7.83;;
13816;SDS011;6979;52.116;5.286;2023-04-19T02:50:44;7.67;;;7.00;;
13816;SDS011;6979;52.116;5.286;2023-04-19T02:53:11;9.20;;;8.50;;
13816;SDS011;6979;52.116;5.286;2023-04-19T02:55:39;8.23;;;7.53;;
13816;SDS011;6979;52.116;5.286;2023-04-19T02:58:11;8.93;;;8.23;;
13816;SDS011;6979;52.116;5.286;2023-04-19T03:00:47;9.00;;;8.10;;
13816;SDS011;6979;52.116;5.286;2023-04-19T03:03:18;8.40;;;7.60;;
13816;SDS011;6979;52.116;5.286;2023-04-19T03:05:46;9.80;;;8.90;;
13816;SDS011;6979;52.116;5.286;2023-04-19T03:08:13;9.43;;;8.43;;
13816;SDS011;6979;52.116;5.286;2023-04-19T03:10:40;8.80;;;8.00;;
13816;SDS011;6979;52.116;5.286;2023-04-19T03:13:07;9.17;;;8.37;;
13816;SDS011;6979;52.116;5.286;2023-04-19T03:15:34;9.03;;;8.10;;
13816;SDS011;6979;52.116;5.286;2023-04-19T03:18:01;8.13;;;7.33;;
13816;SDS011;6979;52.116;5.286;2023-04-19T03:20:29;7.73;;;7.03;;
13816;SDS011;6979;52.116;5.286;2023-04-19T03:22:58;8.43;;;7.63;;
13816;SDS011;6979;52.116;5.286;2023-04-19T03:25:25;8.57;;;7.87;;
13816;SDS011;6979;52.116;5.286;2023-04-19T03:28:01;8.83;;;7.93;;
13816;SDS011;6979;52.116;5.286;2023-04-19T03:31:00;7.63;;;7.03;;
13816;SDS011;6979;52.116;5.286;2023-04-19T03:33:27;8.30;;;7.53;;
13816;SDS011;6979;52.116;5.286;2023-04-19T03:35:55;8.57;;;7.77;;
13816;SDS011;6979;52.116;5.286;2023-04-19T03:38:24;9.00;;;7.97;;
13816;SDS011;6979;52.116;5.286;2023-04-19T03:40:51;8.00;;;7.40;;
13816;SDS011;6979;52.116;5.286;2023-04-19T03:43:20;8.03;;;7.37;;
13816;SDS011;6979;52.116;5.286;2023-04-19T03:45:48;7.90;;;7.30;;
13816;SDS011;6979;52.116;5.286;2023-04-19T03:48:15;8.17;;;7.47;;
13816;SDS011;6979;52.116;5.286;2023-04-19T03:50:43;9.00;;;8.20;;
13816;SDS011;6979;52.116;5.286;2023-04-19T03:53:16;7.80;;;7.10;;
13816;SDS011;6979;52.116;5.286;2023-04-19T03:55:45;8.10;;;7.40;;
13816;SDS011;6979;52.116;5.286;2023-04-19T03:58:12;7.53;;;6.93;;
13816;SDS011;6979;52.116;5.286;2023-04-19T04:00:48;8.03;;;7.33;;
13816;SDS011;6979;52.116;5.286;2023-04-19T04:03:18;8.13;;;7.43;;
13816;SDS011;6979;52.116;5.286;2023-04-19T04:05:44;7.63;;;7.03;;
13816;SDS011;6979;52.116;5.286;2023-04-19T04:08:13;8.60;;;7.70;;
13816;SDS011;6979;52.116;5.286;2023-04-19T04:10:40;7.77;;;7.17;;
13816;SDS011;6979;52.116;5.286;2023-04-19T04:13:09;8.13;;;7.43;;
13816;SDS011;6979;52.116;5.286;2023-04-19T04:15:43;7.20;;;6.50;;
13816;SDS011;6979;52.116;5.286;2023-04-19T04:18:11;7.50;;;6.80;;
13816;SDS011;6979;52.116;5.286;2023-04-19T04:20:38;6.93;;;6.33;;
13816;SDS011;6979;52.116;5.286;2023-04-19T04:23:10;7.83;;;7.17;;
13816;SDS011;6979;52.116;5.286;2023-04-19T04:25:44;8.07;;;7.37;;
13816;SDS011;6979;52.116;5.286;2023-04-19T04:28:14;7.60;;;6.90;;
13816;SDS011;6979;52.116;5.286;2023-04-19T04:30:40;7.13;;;6.53;;
13816;SDS011;6979;52.116;5.286;2023-04-19T04:33:10;7.17;;;6.57;;
13816;SDS011;6979;52.116;5.286;2023-04-19T04:35:40;7.40;;;6.70;;
13816;SDS011;6979;52.116;5.286;2023-04-19T04:38:13;6.90;;;6.40;;
13816;SDS011;6979;52.116;5.286;2023-04-19T04:40:41;6.93;;;6.30;;
13816;SDS011;6979;52.116;5.286;2023-04-19T04:43:08;6.90;;;6.40;;
13816;SDS011;6979;52.116;5.286;2023-04-19T04:45:37;6.93;;;6.33;;
13816;SDS011;6979;52.116;5.286;2023-04-19T04:48:04;6.47;;;5.73;;
13816;SDS011;6979;52.116;5.286;2023-04-19T04:50:33;7.10;;;6.50;;
13816;SDS011;6979;52.116;5.286;2023-04-19T04:53:00;6.80;;;6.20;;
13816;SDS011;6979;52.116;5.286;2023-04-19T04:55:29;6.53;;;5.60;;
13816;SDS011;6979;52.116;5.286;2023-04-19T04:57:57;6.63;;;6.07;;
13816;SDS011;6979;52.116;5.286;2023-04-19T05:00:48;7.17;;;6.47;;
13816;SDS011;6979;52.116;5.286;2023-04-19T05:03:16;7.30;;;6.60;;
13816;SDS011;6979;52.116;5.286;2023-04-19T05:05:48;6.43;;;5.93;;
13816;SDS011;6979;52.116;5.286;2023-04-19T05:08:15;6.70;;;6.10;;
13816;SDS011;6979;52.116;5.286;2023-04-19T05:10:43;6.37;;;5.77;;
13816;SDS011;6979;52.116;5.286;2023-04-19T05:13:14;6.43;;;5.93;;
13816;SDS011;6979;52.116;5.286;2023-04-19T05:15:41;6.13;;;5.53;;
13816;SDS011;6979;52.116;5.286;2023-04-19T05:18:13;6.80;;;5.87;;
13816;SDS011;6979;52.116;5.286;2023-04-19T05:20:42;6.37;;;5.87;;
13816;SDS011;6979;52.116;5.286;2023-04-19T05:23:17;6.53;;;5.93;;
13816;SDS011;6979;52.116;5.286;2023-04-19T05:25:44;6.50;;;5.90;;
13816;SDS011;6979;52.116;5.286;2023-04-19T05:28:11;6.23;;;5.77;;
13816;SDS011;6979;52.116;5.286;2023-04-19T05:30:56;7.00;;;6.37;;
13816;SDS011;6979;52.116;5.286;2023-04-19T05:33:29;6.97;;;6.47;;
13816;SDS011;6979;52.116;5.286;2023-04-19T05:35:58;7.00;;;6.40;;
13816;SDS011;6979;52.116;5.286;2023-04-19T05:38:26;6.40;;;5.90;;
13816;SDS011;6979;52.116;5.286;2023-04-19T05:40:56;6.40;;;5.80;;
13816;SDS011;6979;52.116;5.286;2023-04-19T05:43:23;7.13;;;6.53;;
13816;SDS011;6979;52.116;5.286;2023-04-19T05:45:50;6.90;;;6.30;;
13816;SDS011;6979;52.116;5.286;2023-04-19T05:48:17;5.83;;;5.33;;
13816;SDS011;6979;52.116;5.286;2023-04-19T05:51:09;6.13;;;5.63;;
13816;SDS011;6979;52.116;5.286;2023-04-19T05:54:02;6.57;;;6.10;;
13816;SDS011;6979;52.116;5.286;2023-04-19T05:56:29;5.63;;;5.13;;
13816;SDS011;6979;52.116;5.286;2023-04-19T05:58:56;6.53;;;5.93;;
13816;SDS011;6979;52.116;5.286;2023-04-19T06:01:25;7.37;;;6.13;;
13816;SDS011;6979;52.116;5.286;2023-04-19T06:03:52;6.57;;;6.03;;
13816;SDS011;6979;52.116;5.286;2023-04-19T06:06:21;6.40;;;5.83;;
13816;SDS011;6979;52.116;5.286;2023-04-19T06:08:48;6.60;;;6.00;;
13816;SDS011;6979;52.116;5.286;2023-04-19T06:11:15;6.43;;;5.83;;
13816;SDS011;6979;52.116;5.286;2023-04-19T06:13:42;5.53;;;4.97;;
13816;SDS011;6979;52.116;5.286;2023-04-19T06:16:11;6.03;;;5.40;;
13816;SDS011;6979;52.116;5.286;2023-04-19T06:18:39;5.60;;;5.13;;
13816;SDS011;6979;52.116;5.286;2023-04-19T06:21:07;6.53;;;6.03;;
13816;SDS011;6979;52.116;5.286;2023-04-19T06:23:35;5.97;;;5.43;;
13816;SDS011;6979;52.116;5.286;2023-04-19T06:26:02;5.73;;;5.13;;
13816;SDS011;6979;52.116;5.286;2023-04-19T06:28:29;6.00;;;5.40;;
13816;SDS011;6979;52.116;5.286;2023-04-19T06:30:56;5.90;;;5.40;;
13816;SDS011;6979;52.116;5.286;2023-04-19T06:33:24;5.10;;;4.73;;
13816;SDS011;6979;52.116;5.286;2023-04-19T06:35:50;7.93;;;5.17;;
13816;SDS011;6979;52.116;5.286;2023-04-19T06:38:17;6.50;;;5.53;;
13816;SDS011;6979;52.116;5.286;2023-04-19T06:40:45;5.60;;;5.17;;
13816;SDS011;6979;52.116;5.286;2023-04-19T06:43:12;5.27;;;4.87;;
13816;SDS011;6979;52.116;5.286;2023-04-19T06:45:39;5.63;;;4.77;;
13816;SDS011;6979;52.116;5.286;2023-04-19T06:48:06;5.47;;;4.97;;
13816;SDS011;6979;52.116;5.286;2023-04-19T06:50:33;4.37;;;4.07;;
13816;SDS011;6979;52.116;5.286;2023-04-19T06:53:00;4.80;;;4.40;;
13816;SDS011;6979;52.116;5.286;2023-04-19T06:55:27;4.53;;;4.13;;
13816;SDS011;6979;52.116;5.286;2023-04-19T06:57:55;4.77;;;4.40;;
13816;SDS011;6979;52.116;5.286;2023-04-19T07:00:22;5.00;;;4.60;;
13816;SDS011;6979;52.116;5.286;2023-04-19T07:02:50;4.50;;;4.20;;
13816;SDS011;6979;52.116;5.286;2023-04-19T07:05:17;5.10;;;4.47;;
13816;SDS011;6979;52.116;5.286;2023-04-19T07:07:44;3.93;;;3.63;;
13816;SDS011;6979;52.116;5.286;2023-04-19T07:10:11;4.27;;;3.97;;
13816;SDS011;6979;52.116;5.286;2023-04-19T07:12:38;3.87;;;3.57;;
13816;SDS011;6979;52.116;5.286;2023-04-19T07:15:07;3.63;;;3.43;;
13816;SDS011;6979;52.116;5.286;2023-04-19T07:17:34;4.43;;;4.13;;
13816;SDS011;6979;52.116;5.286;2023-04-19T07:20:02;4.27;;;3.90;;
13816;SDS011;6979;52.116;5.286;2023-04-19T07:22:30;4.00;;;3.70;;
13816;SDS011;6979;52.116;5.286;2023-04-19T07:24:57;4.10;;;3.80;;
13816;SDS011;6979;52.116;5.286;2023-04-19T07:27:24;4.40;;;4.10;;
13816;SDS011;6979;52.116;5.286;2023-04-19T07:29:51;4.00;;;3.70;;
13816;SDS011;6979;52.116;5.286;2023-04-19T07:32:19;4.27;;;3.97;;
13816;SDS011;6979;52.116;5.286;2023-04-19T07:34:46;4.00;;;3.70;;
13816;SDS011;6979;52.116;5.286;2023-04-19T07:37:15;4.00;;;3.70;;
13816;SDS011;6979;52.116;5.286;2023-04-19T07:39:42;3.87;;;3.37;;
13816;SDS011;6979;52.116;5.286;2023-04-19T07:42:09;3.67;;;3.37;;
13816;SDS011;6979;52.116;5.286;2023-04-19T07:44:36;4.40;;;4.10;;
13816;SDS011;6979;52.116;5.286;2023-04-19T07:47:03;3.80;;;3.50;;
13816;SDS011;6979;52.116;5.286;2023-04-19T07:49:31;3.60;;;3.40;;
13816;SDS011;6979;52.116;5.286;2023-04-19T07:51:59;3.97;;;3.60;;
13816;SDS011;6979;52.116;5.286;2023-04-19T07:54:26;3.00;;;2.80;;
13816;SDS011;6979;52.116;5.286;2023-04-19T07:56:54;3.33;;;3.07;;
13816;SDS011;6979;52.116;5.286;2023-04-19T07:59:21;3.40;;;3.20;;
13816;SDS011;6979;52.116;5.286;2023-04-19T08:01:48;3.50;;;3.23;;
13816;SDS011;6979;52.116;5.286;2023-04-19T08:04:15;3.60;;;3.30;;
13816;SDS011;6979;52.116;5.286;2023-04-19T08:06:45;3.80;;;3.50;;
13816;SDS011;6979;52.116;5.286;2023-04-19T08:09:12;3.90;;;3.60;;
13816;SDS011;6979;52.116;5.286;2023-04-19T08:11:39;3.17;;;2.97;;
13816;SDS011;6979;52.116;5.286;2023-04-19T08:14:07;3.57;;;3.00;;
13816;SDS011;6979;52.116;5.286;2023-04-19T08:16:34;4.70;;;3.37;;
13816;SDS011;6979;52.116;5.286;2023-04-19T08:19:01;3.00;;;2.80;;
13816;SDS011;6979;52.116;5.286;2023-04-19T08:21:27;3.67;;;3.43;;
13816;SDS011;6979;52.116;5.286;2023-04-19T08:23:57;3.53;;;3.33;;
13816;SDS011;6979;52.116;5.286;2023-04-19T08:26:26;3.43;;;2.80;;
13816;SDS011;6979;52.116;5.286;2023-04-19T08:28:53;3.10;;;2.90;;
13816;SDS011;6979;52.116;5.286;2023-04-19T08:31:20;3.50;;;3.20;;
13816;SDS011;6979;52.116;5.286;2023-04-19T08:33:46;3.03;;;2.83;;
13816;SDS011;6979;52.116;5.286;2023-04-19T08:36:13;3.80;;;3.20;;
13816;SDS011;6979;52.116;5.286;2023-04-19T08:38:41;3.33;;;3.03;;
13816;SDS011;6979;52.116;5.286;2023-04-19T08:41:09;3.33;;;3.03;;
13816;SDS011;6979;52.116;5.286;2023-04-19T08:43:37;3.07;;;2.40;;
13816;SDS011;6979;52.116;5.286;2023-04-19T08:46:07;2.73;;;2.53;;
13816;SDS011;6979;52.116;5.286;2023-04-19T08:48:36;2.47;;;2.23;;
13816;SDS011;6979;52.116;5.286;2023-04-19T08:51:04;2.80;;;2.60;;
13816;SDS011;6979;52.116;5.286;2023-04-19T08:53:34;3.33;;;2.17;;
13816;SDS011;6979;52.116;5.286;2023-04-19T08:56:02;2.43;;;2.33;;
13816;SDS011;6979;52.116;5.286;2023-04-19T08:58:31;2.83;;;2.30;;
13816;SDS011;6979;52.116;5.286;2023-04-19T09:00:58;2.50;;;2.40;;
13816;SDS011;6979;52.116;5.286;2023-04-19T09:03:25;2.43;;;2.23;;
13816;SDS011;6979;52.116;5.286;2023-04-19T09:05:52;2.57;;;2.37;;
13816;SDS011;6979;52.116;5.286;2023-04-19T09:08:23;2.37;;;2.27;;
13816;SDS011;6979;52.116;5.286;2023-04-19T09:10:55;1.63;;;1.53;;
13816;SDS011;6979;52.116;5.286;2023-04-19T09:13:22;2.00;;;1.90;;
13816;SDS011;6979;52.116;5.286;2023-04-19T09:15:51;1.67;;;1.53;;
13816;SDS011;6979;52.116;5.286;2023-04-19T09:18:21;1.57;;;1.47;;
13816;SDS011;6979;52.116;5.286;2023-04-19T09:20:49;1.60;;;1.50;;
13816;SDS011;6979;52.116;5.286;2023-04-19T09:23:21;1.73;;;1.50;;
13816;SDS011;6979;52.116;5.286;2023-04-19T09:25:51;1.70;;;1.60;;
13816;SDS011;6979;52.116;5.286;2023-04-19T09:28:18;2.13;;;2.00;;
13816;SDS011;6979;52.116;5.286;2023-04-19T09:30:46;2.63;;;2.40;;
13816;SDS011;6979;52.116;5.286;2023-04-19T09:33:14;3.03;;;2.00;;
13816;SDS011;6979;52.116;5.286;2023-04-19T09:35:57;1.43;;;1.43;;
13816;SDS011;6979;52.116;5.286;2023-04-19T09:38:25;1.40;;;1.30;;
13816;SDS011;6979;52.116;5.286;2023-04-19T09:40:51;1.93;;;1.20;;
13816;SDS011;6979;52.116;5.286;2023-04-19T09:43:30;1.47;;;1.47;;
13816;SDS011;6979;52.116;5.286;2023-04-19T09:45:57;1.43;;;1.33;;
13816;SDS011;6979;52.116;5.286;2023-04-19T09:48:25;1.37;;;1.30;;
13816;SDS011;6979;52.116;5.286;2023-04-19T09:50:53;1.23;;;1.23;;
13816;SDS011;6979;52.116;5.286;2023-04-19T09:53:21;1.63;;;1.50;;
13816;SDS011;6979;52.116;5.286;2023-04-19T09:55:49;1.40;;;1.30;;
13816;SDS011;6979;52.116;5.286;2023-04-19T09:58:17;1.77;;;1.47;;
13816;SDS011;6979;52.116;5.286;2023-04-19T10:00:44;1.70;;;1.60;;
13816;SDS011;6979;52.116;5.286;2023-04-19T10:03:12;1.60;;;1.50;;
13816;SDS011;6979;52.116;5.286;2023-04-19T10:05:42;1.60;;;1.50;;
13816;SDS011;6979;52.116;5.286;2023-04-19T10:08:12;1.87;;;1.50;;
13816;SDS011;6979;52.116;5.286;2023-04-19T10:10:39;1.60;;;1.50;;
13816;SDS011;6979;52.116;5.286;2023-04-19T10:13:07;1.63;;;1.30;;
13816;SDS011;6979;52.116;5.286;2023-04-19T10:15:36;1.23;;;1.13;;
13816;SDS011;6979;52.116;5.286;2023-04-19T10:18:04;1.70;;;1.60;;
13816;SDS011;6979;52.116;5.286;2023-04-19T10:20:33;1.47;;;1.47;;
13816;SDS011;6979;52.116;5.286;2023-04-19T10:23:07;1.60;;;1.60;;
13816;SDS011;6979;52.116;5.286;2023-04-19T10:25:35;1.63;;;1.53;;
13816;SDS011;6979;52.116;5.286;2023-04-19T10:28:03;1.27;;;1.23;;
13816;SDS011;6979;52.116;5.286;2023-04-19T10:30:30;1.23;;;1.23;;
13816;SDS011;6979;52.116;5.286;2023-04-19T10:32:57;1.30;;;1.30;;
13816;SDS011;6979;52.116;5.286;2023-04-19T10:35:33;1.57;;;1.50;;
13816;SDS011;6979;52.116;5.286;2023-04-19T10:38:02;1.47;;;1.37;;
13816;SDS011;6979;52.116;5.286;2023-04-19T10:43:21;1.30;;;1.30;;
13816;SDS011;6979;52.116;5.286;2023-04-19T10:45:48;1.33;;;1.30;;
13816;SDS011;6979;52.116;5.286;2023-04-19T10:48:31;1.43;;;1.33;;
13816;SDS011;6979;52.116;5.286;2023-04-19T10:51:00;1.43;;;1.33;;
13816;SDS011;6979;52.116;5.286;2023-04-19T10:56:58;1.10;;;1.10;;
13816;SDS011;6979;52.116;5.286;2023-04-19T10:59:28;1.57;;;1.30;;
13816;SDS011;6979;52.116;5.286;2023-04-19T11:01:56;1.80;;;1.70;;
13816;SDS011;6979;52.116;5.286;2023-04-19T11:07:25;1.47;;;1.43;;
13816;SDS011;6979;52.116;5.286;2023-04-19T11:09:52;1.97;;;1.30;;
13816;SDS011;6979;52.116;5.286;2023-04-19T11:12:23;1.87;;;1.37;;
13816;SDS011;6979;52.116;5.286;2023-04-19T11:14:50;1.40;;;1.40;;
13816;SDS011;6979;52.116;5.286;2023-04-19T11:17:19;1.80;;;1.30;;
13816;SDS011;6979;52.116;5.286;2023-04-19T11:19:53;1.80;;;1.70;;
13816;SDS011;6979;52.116;5.286;2023-04-19T11:22:24;1.40;;;1.40;;
13816;SDS011;6979;52.116;5.286;2023-04-19T11:25:03;1.50;;;1.40;;
13816;SDS011;6979;52.116;5.286;2023-04-19T11:27:35;5.73;;;1.90;;
13816;SDS011;6979;52.116;5.286;2023-04-19T11:30:03;12.30;;;9.93;;
13816;SDS011;6979;52.116;5.286;2023-04-19T11:32:31;5.13;;;3.60;;
13816;SDS011;6979;52.116;5.286;2023-04-19T11:35:02;2.90;;;2.70;;
13816;SDS011;6979;52.116;5.286;2023-04-19T11:37:31;2.23;;;2.13;;
13816;SDS011;6979;52.116;5.286;2023-04-19T11:39:59;2.20;;;2.00;;
13816;SDS011;6979;52.116;5.286;2023-04-19T11:42:26;1.77;;;1.57;;
13816;SDS011;6979;52.116;5.286;2023-04-19T11:44:54;1.77;;;1.67;;
13816;SDS011;6979;52.116;5.286;2023-04-19T11:47:22;1.70;;;1.60;;
13816;SDS011;6979;52.116;5.286;2023-04-19T11:49:49;4.67;;;1.93;;
13816;SDS011;6979;52.116;5.286;2023-04-19T11:52:20;1.80;;;1.70;;
13816;SDS011;6979;52.116;5.286;2023-04-19T11:54:48;1.50;;;1.50;;
13816;SDS011;6979;52.116;5.286;2023-04-19T11:57:25;1.90;;;1.80;;
13816;SDS011;6979;52.116;5.286;2023-04-19T12:00:04;1.90;;;1.80;;
13816;SDS011;6979;52.116;5.286;2023-04-19T12:02:39;1.93;;;1.83;;
13816;SDS011;6979;52.116;5.286;2023-04-19T12:05:09;2.43;;;2.30;;
13816;SDS011;6979;52.116;5.286;2023-04-19T12:10:24;1.87;;;1.77;;
13816;SDS011;6979;52.116;5.286;2023-04-19T12:12:53;1.80;;;1.70;;
13816;SDS011;6979;52.116;5.286;2023-04-19T12:15:22;2.90;;;2.27;;
13816;SDS011;6979;52.116;5.286;2023-04-19T12:17:55;2.20;;;2.00;;
13816;SDS011;6979;52.116;5.286;2023-04-19T12:20:34;2.10;;;2.00;;
13816;SDS011;6979;52.116;5.286;2023-04-19T12:23:13;2.33;;;1.77;;
13816;SDS011;6979;52.116;5.286;2023-04-19T12:25:46;2.77;;;2.57;;
13816;SDS011;6979;52.116;5.286;2023-04-19T12:28:16;2.10;;;2.00;;
13816;SDS011;6979;52.116;5.286;2023-04-19T12:30:44;2.00;;;1.80;;
13816;SDS011;6979;52.116;5.286;2023-04-19T12:33:11;2.00;;;1.90;;
13816;SDS011;6979;52.116;5.286;2023-04-19T12:35:38;2.20;;;2.10;;
13816;SDS011;6979;52.116;5.286;2023-04-19T12:38:05;2.43;;;2.23;;
13816;SDS011;6979;52.116;5.286;2023-04-19T12:40:32;2.93;;;2.50;;
13816;SDS011;6979;52.116;5.286;2023-04-19T12:42:59;2.37;;;2.17;;
13816;SDS011;6979;52.116;5.286;2023-04-19T12:45:26;3.00;;;2.40;;
13816;SDS011;6979;52.116;5.286;2023-04-19T12:47:55;2.57;;;2.47;;
13816;SDS011;6979;52.116;5.286;2023-04-19T12:50:22;2.10;;;2.00;;
13816;SDS011;6979;52.116;5.286;2023-04-19T12:52:57;2.13;;;2.03;;
13816;SDS011;6979;52.116;5.286;2023-04-19T12:55:30;2.90;;;2.60;;
13816;SDS011;6979;52.116;5.286;2023-04-19T12:57:57;2.23;;;2.03;;
13816;SDS011;6979;52.116;5.286;2023-04-19T13:00:25;2.30;;;2.20;;
13816;SDS011;6979;52.116;5.286;2023-04-19T13:02:57;2.23;;;2.13;;
13816;SDS011;6979;52.116;5.286;2023-04-19T13:05:25;2.30;;;2.20;;
13816;SDS011;6979;52.116;5.286;2023-04-19T13:07:55;2.10;;;2.00;;
13816;SDS011;6979;52.116;5.286;2023-04-19T13:10:23;2.37;;;2.27;;
13816;SDS011;6979;52.116;5.286;2023-04-19T13:12:52;2.53;;;2.33;;
13816;SDS011;6979;52.116;5.286;2023-04-19T13:15:23;2.60;;;2.40;;
13816;SDS011;6979;52.116;5.286;2023-04-19T13:17:53;2.20;;;2.03;;
13816;SDS011;6979;52.116;5.286;2023-04-19T13:20:26;2.50;;;2.30;;
13816;SDS011;6979;52.116;5.286;2023-04-19T13:22:53;2.77;;;2.57;;
13816;SDS011;6979;52.116;5.286;2023-04-19T13:25:20;4.40;;;2.40;;
13816;SDS011;6979;52.116;5.286;2023-04-19T13:27:47;2.13;;;2.00;;
13816;SDS011;6979;52.116;5.286;2023-04-19T13:30:15;2.20;;;2.10;;
13816;SDS011;6979;52.116;5.286;2023-04-19T13:32:42;2.27;;;2.17;;
13816;SDS011;6979;52.116;5.286;2023-04-19T13:35:10;2.50;;;2.40;;
13816;SDS011;6979;52.116;5.286;2023-04-19T13:37:37;2.47;;;2.27;;
13816;SDS011;6979;52.116;5.286;2023-04-19T13:40:08;2.17;;;2.07;;
13816;SDS011;6979;52.116;5.286;2023-04-19T13:42:36;2.20;;;2.10;;
13816;SDS011;6979;52.116;5.286;2023-04-19T13:45:03;2.33;;;2.23;;
13816;SDS011;6979;52.116;5.286;2023-04-19T13:47:34;2.37;;;1.90;;
13816;SDS011;6979;52.116;5.286;2023-04-19T13:50:01;2.37;;;2.27;;
13816;SDS011;6979;52.116;5.286;2023-04-19T13:52:30;2.53;;;2.33;;
13816;SDS011;6979;52.116;5.286;2023-04-19T13:54:57;2.30;;;2.20;;
13816;SDS011;6979;52.116;5.286;2023-04-19T13:57:24;1.77;;;1.67;;
13816;SDS011;6979;52.116;5.286;2023-04-19T13:59:53;3.03;;;2.07;;
13816;SDS011;6979;52.116;5.286;2023-04-19T14:02:20;2.20;;;2.00;;
13816;SDS011;6979;52.116;5.286;2023-04-19T14:04:47;2.33;;;2.23;;
13816;SDS011;6979;52.116;5.286;2023-04-19T14:07:14;2.03;;;1.93;;
13816;SDS011;6979;52.116;5.286;2023-04-19T14:09:45;2.43;;;2.30;;
13816;SDS011;6979;52.116;5.286;2023-04-19T14:12:13;5.07;;;2.60;;
13816;SDS011;6979;52.116;5.286;2023-04-19T14:14:40;2.53;;;2.33;;
13816;SDS011;6979;52.116;5.286;2023-04-19T14:17:07;2.00;;;1.90;;
13816;SDS011;6979;52.116;5.286;2023-04-19T14:19:33;2.20;;;2.10;;
13816;SDS011;6979;52.116;5.286;2023-04-19T14:22:01;2.20;;;1.63;;
13816;SDS011;6979;52.116;5.286;2023-04-19T14:24:28;2.13;;;2.03;;
13816;SDS011;6979;52.116;5.286;2023-04-19T14:26:56;1.77;;;1.67;;
13816;SDS011;6979;52.116;5.286;2023-04-19T14:29:23;2.77;;;2.30;;
13816;SDS011;6979;52.116;5.286;2023-04-19T14:31:52;1.87;;;1.77;;
13816;SDS011;6979;52.116;5.286;2023-04-19T14:34:19;2.70;;;1.90;;
13816;SDS011;6979;52.116;5.286;2023-04-19T14:36:46;2.20;;;2.03;;
13816;SDS011;6979;52.116;5.286;2023-04-19T14:39:13;2.90;;;2.20;;
13816;SDS011;6979;52.116;5.286;2023-04-19T14:41:40;2.03;;;1.93;;
13816;SDS011;6979;52.116;5.286;2023-04-19T14:44:08;2.60;;;2.20;;
13816;SDS011;6979;52.116;5.286;2023-04-19T14:46:37;1.90;;;1.80;;
13816;SDS011;6979;52.116;5.286;2023-04-19T14:49:04;2.50;;;2.03;;
13816;SDS011;6979;52.116;5.286;2023-04-19T14:51:31;2.00;;;1.90;;
13816;SDS011;6979;52.116;5.286;2023-04-19T14:53:58;2.20;;;2.10;;
13816;SDS011;6979;52.116;5.286;2023-04-19T14:56:25;3.07;;;2.07;;
13816;SDS011;6979;52.116;5.286;2023-04-19T14:58:52;2.73;;;2.20;;
13816;SDS011;6979;52.116;5.286;2023-04-19T15:01:21;2.40;;;2.30;;
13816;SDS011;6979;52.116;5.286;2023-04-19T15:03:48;3.67;;;2.40;;
13816;SDS011;6979;52.116;5.286;2023-04-19T15:06:15;2.80;;;2.00;;
13816;SDS011;6979;52.116;5.286;2023-04-19T15:08:42;1.60;;;1.50;;
13816;SDS011;6979;52.116;5.286;2023-04-19T15:11:09;2.00;;;1.90;;
13816;SDS011;6979;52.116;5.286;2023-04-19T15:13:36;2.27;;;2.07;;
13816;SDS011;6979;52.116;5.286;2023-04-19T15:16:03;2.40;;;2.30;;
13816;SDS011;6979;52.116;5.286;2023-04-19T15:18:33;3.20;;;2.40;;
13816;SDS011;6979;52.116;5.286;2023-04-19T15:21:01;2.60;;;2.20;;